Dougherty, OK (73032)

1:08 AM CST on February 20, 2017 (GMT -0600)
| | Change Station

Elev -9999 ft 0.00 °N, 0.00 °E | Updated 0 second ago

Rain
Rain
°F
Feels Like °F
N
Wind Variable Wind from North
Gusts mph

Today
High -- | Low -- °F
--% Chance of Precip.
Yesterday
High -- | Low -- °F
Precip. -- in
Pressure 29.88 in
Visibility 2.5 miles
Clouds Scattered Clouds 1200 ft
Mostly Cloudy 1900 ft
Overcast 3300 ft
Dew Point Not available.
Humidity Not available.
Rainfall --
Snow Depth Not available.
7:07 AM 6:16 PM
Last Quarter, 36% visible
METAR KADM 200655Z AUTO 31005KT 2 1/2SM +RA SCT012 BKN019 OVC033 17/16 A2988 RMK AO2 LTG DSNT ALQS P0034 T01650160
Pressure 29.88 in
Visibility 2.5 miles
Clouds Scattered Clouds 1200 ft
Mostly Cloudy 1900 ft
Overcast 3300 ft
Dew Point Not available.
Humidity Not available.
Rainfall --
Snow Depth Not available.
7:07 AM 6:16 PM
Last Quarter, 36% visible
METAR KADM 200655Z AUTO 31005KT 2 1/2SM +RA SCT012 BKN019 OVC033 17/16 A2988 RMK AO2 LTG DSNT ALQS P0034 T01650160

Get Your Daily Forecast Email!

Thanks for signing up!

Be on the lookout for a verification email in your inbox.

You'll start receiving the daily forecast at 8 AM.

×

10-Day Weather Forecast

Almanac

Astronomy

Feb. 20, 2017 Rise Set
Actual Time
Civil Twilight
Nautical Twilight
Astronomical Twilight
Moon
Length of Visible Light
Length of Day
Tomorrow will be .
, % of the Moon is Illuminated

Today's Extremes

State Highs State Lows

Community

WunderPhotos

Upload Photos

1,962,540 photos uploaded!

WunderBlog® & News

Nearby

Air Quality

  Air Quality AQ Index Pollutant
Not available.

Snow Depth

Station Depth Elevation

Earthquake Activity

City Distance Mag. Time & Date
Minimum magnitude displayed is 2.5.

Coastal Water Temperatures

Place Temperature

Stations

Nearby Weather Stations

Station Location Temp. Windchill Dew Point Humidity Wind Precip. Elev Updated Type
                   

Watches & Warnings

There are currently no watches in effect.